createdAt,value
2023-03-21T00:00:17.174Z,100497.48
2023-03-21T00:03:56.973Z,100493.30
2023-03-21T00:07:45.907Z,100488.79
2023-03-21T00:11:15.910Z,100491.08
2023-03-21T00:14:52.984Z,100489.34
2023-03-21T00:18:31.914Z,100482.39
2023-03-21T00:22:13.934Z,100481.88
2023-03-21T00:26:02.691Z,100478.59
2023-03-21T00:29:41.368Z,100480.88
2023-03-21T00:33:30.129Z,100478.79
2023-03-21T00:37:11.462Z,100479.52
2023-03-21T00:41:04.598Z,100474.49
2023-03-21T00:44:56.499Z,100474.34
2023-03-21T00:48:45.307Z,100472.29
2023-03-21T00:52:40.539Z,100476.66
2023-03-21T00:56:05.047Z,100471.98
2023-03-21T00:59:53.893Z,100474.47
2023-03-21T01:03:28.051Z,100468.36
2023-03-21T01:07:16.821Z,100472.77
2023-03-21T01:11:05.798Z,100469.83
2023-03-21T01:14:54.572Z,100471.79
2023-03-21T01:18:43.348Z,100470.77
2023-03-21T01:22:22.025Z,100469.23
2023-03-21T01:26:10.811Z,100467.00
2023-03-21T01:29:59.872Z,100462.30
2023-03-21T01:33:48.914Z,100462.34
2023-03-21T01:37:37.686Z,100460.64
2023-03-21T01:41:36.848Z,100458.06
2023-03-21T01:44:53.013Z,100454.77
2023-03-21T01:48:41.778Z,100456.55
2023-03-21T01:52:26.415Z,100454.66
2023-03-21T01:55:58.992Z,100452.08
2023-03-21T02:00:05.594Z,100444.23
2023-03-21T02:04:10.286Z,100445.84
2023-03-21T02:07:35.676Z,100445.50
2023-03-21T02:11:24.477Z,100443.95
2023-03-21T02:14:56.067Z,100442.02
2023-03-21T02:18:42.579Z,100443.81
2023-03-21T02:22:03.891Z,100444.33
2023-03-21T02:25:50.214Z,100447.67
2023-03-21T02:29:44.940Z,100450.50
2023-03-21T02:33:23.346Z,100452.27
2023-03-21T02:36:57.042Z,100446.17
2023-03-21T02:40:28.519Z,100450.73
2023-03-21T02:44:22.002Z,100451.63
2023-03-21T02:48:25.556Z,100453.57
2023-03-21T02:51:46.574Z,100453.40
2023-03-21T02:55:35.309Z,100451.33
2023-03-21T02:59:14.032Z,100457.79
2023-03-21T03:03:07.884Z,100450.11
2023-03-21T03:06:57.931Z,100460.79
2023-03-21T03:10:55.410Z,100462.71
2023-03-21T03:15:02.609Z,100469.54
2023-03-21T03:18:54.419Z,100467.12
2023-03-21T03:22:35.811Z,100468.91
2023-03-21T03:26:09.125Z,100469.43
2023-03-21T03:29:57.912Z,100474.52
2023-03-21T03:33:37.804Z,100470.67
2023-03-21T03:37:26.564Z,100467.36
2023-03-21T03:41:11.623Z,100468.95
2023-03-21T03:44:49.888Z,100467.39
2023-03-21T03:48:31.249Z,100472.47
2023-03-21T03:52:14.500Z,100473.01
2023-03-21T03:55:56.973Z,100481.04
2023-03-21T03:59:45.720Z,100480.89
2023-03-21T04:03:47.645Z,100480.02
2023-03-21T04:07:17.701Z,100476.19
2023-03-21T04:11:06.525Z,100475.33
2023-03-21T04:15:01.939Z,100477.27
2023-03-21T04:18:43.280Z,100476.22
2023-03-21T04:22:21.872Z,100474.50
2023-03-21T04:26:00.573Z,100472.06
2023-03-21T04:29:38.455Z,100474.86
2023-03-21T04:33:27.246Z,100471.73
2023-03-21T04:37:15.997Z,100473.33
2023-03-21T04:41:04.837Z,100474.36
2023-03-21T04:44:53.622Z,100477.70
2023-03-21T04:48:42.381Z,100481.72
2023-03-21T04:52:21.122Z,100478.25
2023-03-21T04:55:55.699Z,100482.27
2023-03-21T04:59:36.466Z,100484.20
2023-03-21T05:03:13.624Z,100485.77
2023-03-21T05:06:55.011Z,100484.02
2023-03-21T05:10:43.839Z,100490.14
2023-03-21T05:14:32.720Z,100491.89
2023-03-21T05:18:21.469Z,100490.32
2023-03-21T05:22:10.347Z,100492.77
2023-03-21T05:25:59.179Z,100497.34
2023-03-21T05:29:53.702Z,100494.38
2023-03-21T05:33:42.446Z,100495.98
2023-03-21T05:37:31.231Z,100497.55
2023-03-21T05:41:12.684Z,100498.42
2023-03-21T05:44:44.033Z,100510.98
2023-03-21T05:48:05.590Z,100515.71
2023-03-21T05:51:45.916Z,100518.84
2023-03-21T05:55:06.200Z,100521.27
2023-03-21T05:58:32.200Z,100523.36
2023-03-21T06:01:56.049Z,100527.17
2023-03-21T06:05:27.262Z,100528.76
2023-03-21T06:09:16.085Z,100532.95
2023-03-21T06:12:48.054Z,100535.91
2023-03-21T06:16:51.933Z,100539.05
2023-03-21T06:20:40.702Z,100539.58
2023-03-21T06:24:03.713Z,100542.89
2023-03-21T06:27:45.394Z,100542.54
2023-03-21T06:31:25.140Z,100546.72
2023-03-21T06:35:13.953Z,100545.85
2023-03-21T06:38:08.674Z,100549.29
2023-03-21T06:41:37.580Z,100553.12
2023-03-21T06:45:32.051Z,100549.61
2023-03-21T06:48:36.602Z,100554.14
2023-03-21T06:51:52.530Z,100555.17
2023-03-21T06:55:30.309Z,100558.48
2023-03-21T06:59:01.472Z,100562.86
2023-03-21T07:02:42.774Z,100567.90
2023-03-21T07:06:16.036Z,100571.38
2023-03-21T07:09:45.377Z,100573.13
2023-03-21T07:13:34.142Z,100573.98
2023-03-21T07:17:22.877Z,100575.87
2023-03-21T07:20:54.341Z,100574.11
2023-03-21T07:24:15.963Z,100572.50
2023-03-21T07:27:03.681Z,100575.61
2023-03-21T07:30:32.402Z,100578.54
2023-03-21T07:34:14.381Z,100579.02
2023-03-21T07:37:23.976Z,100575.10
2023-03-21T07:45:36.766Z,100569.05
2023-03-21T07:49:07.944Z,100566.88
2023-03-21T07:52:56.188Z,100568.02
2023-03-21T07:56:45.075Z,100573.73
2023-03-21T08:00:33.966Z,100580.71
2023-03-21T08:04:12.636Z,100582.27
2023-03-21T08:07:51.280Z,100585.57
2023-03-21T08:11:31.302Z,100591.65
2023-03-21T08:15:01.213Z,100591.58
2023-03-21T08:18:50.152Z,100590.49
2023-03-21T08:22:28.773Z,100591.67
2023-03-21T08:26:17.563Z,100585.52
2023-03-21T08:29:57.203Z,100587.54
2023-03-21T08:33:45.991Z,100587.45
2023-03-21T08:37:28.593Z,100588.74
2023-03-21T08:41:14.379Z,100595.98
2023-03-21T08:44:45.817Z,100593.42
2023-03-21T08:48:14.304Z,100593.13
2023-03-21T08:52:03.148Z,100600.91
2023-03-21T08:55:51.946Z,100605.21
2023-03-21T08:59:40.772Z,100610.77
2023-03-21T09:03:29.596Z,100613.02
2023-03-21T09:06:51.628Z,100615.04
2023-03-21T09:10:30.449Z,100617.11
2023-03-21T09:14:19.303Z,100620.77
2023-03-21T09:18:09.345Z,100621.10
2023-03-21T09:21:58.144Z,100621.42
2023-03-21T09:25:29.624Z,100627.02
2023-03-21T09:29:18.384Z,100626.11
2023-03-21T09:32:58.572Z,100632.19
2023-03-21T09:36:20.000Z,100632.33
2023-03-21T09:40:08.826Z,100638.41
2023-03-21T09:43:45.637Z,100634.38
2023-03-21T09:47:37.257Z,100636.60
2023-03-21T09:51:26.040Z,100634.66
2023-03-21T09:55:14.859Z,100640.27
2023-03-21T09:58:56.133Z,100642.74
2023-03-21T10:02:18.086Z,100648.38
2023-03-21T10:05:57.224Z,100649.86
2023-03-21T10:09:41.565Z,100651.84
2023-03-21T10:13:03.891Z,100654.65
2023-03-21T10:16:55.535Z,100656.24
2023-03-21T10:20:53.089Z,100658.20
2023-03-21T10:24:42.115Z,100653.12
2023-03-21T10:28:34.551Z,100657.27
2023-03-21T10:32:18.112Z,100658.08
2023-03-21T10:35:27.254Z,100658.48
2023-03-21T10:38:47.224Z,100656.14
2023-03-21T10:42:26.094Z,100655.88
2023-03-21T10:46:05.121Z,100654.49
2023-03-21T10:50:10.690Z,100652.41
2023-03-21T10:53:48.423Z,100654.20
2023-03-21T10:57:21.555Z,100653.05
2023-03-21T11:01:03.923Z,100653.27
2023-03-21T11:04:55.398Z,100656.35
2023-03-21T11:08:19.410Z,100651.88
2023-03-21T11:11:48.277Z,100649.46
2023-03-21T11:15:40.186Z,100646.48
2023-03-21T11:19:14.635Z,100647.48
2023-03-21T11:23:06.150Z,100643.63
2023-03-21T11:26:43.398Z,100643.45
2023-03-21T11:29:41.701Z,100639.89
2023-03-21T11:33:39.418Z,100642.15
2023-03-21T11:37:04.048Z,100638.69
2023-03-21T11:40:55.806Z,100639.25
2023-03-21T11:44:33.197Z,100635.45
2023-03-21T11:48:12.907Z,100630.80
2023-03-21T11:52:13.544Z,100629.81
2023-03-21T11:55:50.476Z,100631.80
2023-03-21T11:59:44.357Z,100629.13
2023-03-21T12:03:06.448Z,100629.64
2023-03-21T12:06:32.032Z,100625.98
2023-03-21T12:09:47.546Z,100626.95
2023-03-21T12:13:14.900Z,100632.18
2023-03-21T12:16:30.044Z,100628.44
2023-03-21T12:20:01.898Z,100628.99
2023-03-21T12:23:22.712Z,100621.64
2023-03-21T12:27:06.905Z,100617.60
2023-03-21T12:30:55.145Z,100615.48
2023-03-21T12:35:00.535Z,100612.84
2023-03-21T12:38:24.765Z,100611.70
2023-03-21T12:41:57.292Z,100610.58
2023-03-21T12:45:47.220Z,100608.23
2023-03-21T12:49:29.090Z,100607.41
2023-03-21T12:52:43.048Z,100607.53
2023-03-21T12:56:01.268Z,100611.35
2023-03-21T12:59:41.647Z,100605.33
2023-03-21T13:03:39.867Z,100603.70
2023-03-21T13:07:13.438Z,100606.48
2023-03-21T13:11:05.399Z,100609.14
2023-03-21T13:14:42.378Z,100606.75
2023-03-21T13:18:17.239Z,100606.60
2023-03-21T13:21:48.638Z,100606.75
2023-03-21T13:25:23.373Z,100605.78
2023-03-21T13:29:00.531Z,100602.55
2023-03-21T13:32:39.500Z,100602.96
2023-03-21T13:36:06.160Z,100597.57
2023-03-21T13:39:44.992Z,100592.61
2023-03-21T13:43:27.507Z,100598.52
2023-03-21T13:47:15.221Z,100592.48
2023-03-21T13:51:55.399Z,100593.83
2023-03-21T13:54:51.798Z,100589.80
2023-03-21T13:58:23.138Z,100588.88
2023-03-21T14:01:54.684Z,100590.03
2023-03-21T14:05:36.165Z,100590.34
2023-03-21T14:08:38.849Z,100588.46
2023-03-21T14:11:49.271Z,100589.22
2023-03-21T14:15:28.132Z,100590.30
2023-03-21T14:18:59.418Z,100593.66
2023-03-21T14:21:43.477Z,100595.23
2023-03-21T14:24:50.933Z,100596.65
2023-03-21T14:27:39.785Z,100595.95
2023-03-21T14:30:49.404Z,100593.34
2023-03-21T14:33:58.803Z,100591.59
2023-03-21T14:36:59.125Z,100589.46
2023-03-21T14:40:21.502Z,100587.66
2023-03-21T14:43:33.849Z,100586.92
2023-03-21T14:47:13.244Z,100583.70
2023-03-21T14:50:26.288Z,100583.14
2023-03-21T14:54:11.035Z,100588.04
2023-03-21T14:57:55.091Z,100585.80
2023-03-21T15:01:06.384Z,100585.91
2023-03-21T15:04:27.349Z,100586.69
2023-03-21T15:07:33.423Z,100585.04
2023-03-21T15:11:09.658Z,100583.83
2023-03-21T15:14:48.329Z,100580.69
2023-03-21T15:18:27.401Z,100578.94
2023-03-21T15:21:58.841Z,100576.32
2023-03-21T15:25:38.728Z,100576.89
2023-03-21T15:29:13.598Z,100575.88
2023-03-21T15:32:38.932Z,100574.54
2023-03-21T15:36:09.416Z,100575.77
2023-03-21T15:39:33.877Z,100573.71
2023-03-21T15:43:23.283Z,100574.96
2023-03-21T15:46:39.359Z,100574.43
2023-03-21T15:49:55.361Z,100573.23
2023-03-21T15:53:25.155Z,100571.69
2023-03-21T15:57:03.826Z,100568.04
2023-03-21T16:00:43.457Z,100570.73
2023-03-21T16:05:27.543Z,100567.98
2023-03-21T16:08:50.474Z,100569.11
2023-03-21T16:12:39.264Z,100573.25
2023-03-21T16:16:11.013Z,100573.16
2023-03-21T16:20:01.111Z,100570.27
2023-03-21T16:23:42.720Z,100574.23
2023-03-21T16:27:16.751Z,100570.34
2023-03-21T16:30:45.677Z,100568.93
2023-03-21T16:34:24.747Z,100566.11
2023-03-21T16:37:57.344Z,100567.69
2023-03-21T16:42:11.540Z,100570.02
2023-03-21T16:45:40.367Z,100571.65
2023-03-21T16:48:41.880Z,100574.27
2023-03-21T16:52:33.923Z,100577.25
2023-03-21T16:56:03.014Z,100579.09
2023-03-21T16:59:50.224Z,100581.58
2023-03-21T17:03:41.593Z,100592.48
2023-03-21T17:07:30.433Z,100597.96
2023-03-21T17:11:19.943Z,100603.78
2023-03-21T17:15:08.716Z,100610.14
2023-03-21T17:18:57.482Z,100611.04
2023-03-21T17:22:28.292Z,100619.63
2023-03-21T17:26:10.134Z,100625.23
2023-03-21T17:29:48.806Z,100625.40
2023-03-21T17:33:12.797Z,100620.84
2023-03-21T17:36:51.452Z,100622.94
2023-03-21T17:40:19.630Z,100622.73
2023-03-21T17:44:00.874Z,100631.64
2023-03-21T17:47:15.219Z,100635.79
2023-03-21T17:50:44.126Z,100637.15
2023-03-21T17:53:45.429Z,100641.09
2023-03-21T17:56:57.377Z,100646.27
2023-03-21T18:00:22.293Z,100648.45
2023-03-21T18:03:51.385Z,100649.10
2023-03-21T18:08:01.923Z,100649.55
2023-03-21T18:11:40.486Z,100660.52
2023-03-21T18:14:47.812Z,100664.64
2023-03-21T18:18:11.825Z,100662.96
2023-03-21T18:21:40.736Z,100665.33
2023-03-21T18:25:00.535Z,100667.52
2023-03-21T18:28:28.175Z,100670.73
2023-03-21T18:31:26.397Z,100673.80
2023-03-21T18:34:49.336Z,100673.50
2023-03-21T18:38:17.336Z,100677.58
2023-03-21T18:41:43.286Z,100675.20
2023-03-21T18:46:10.642Z,100676.64
2023-03-21T18:50:10.664Z,100675.83
2023-03-21T18:53:31.088Z,100671.02
2023-03-21T18:57:33.876Z,100671.60
2023-03-21T19:00:50.697Z,100674.64
2023-03-21T19:04:38.730Z,100674.52
2023-03-21T19:07:52.059Z,100669.33
2023-03-21T19:11:25.304Z,100672.15
2023-03-21T19:15:16.338Z,100673.08
2023-03-21T19:18:57.192Z,100670.52
2023-03-21T19:22:31.809Z,100668.98
2023-03-21T19:25:27.597Z,100669.02
2023-03-21T19:28:56.216Z,100667.83
2023-03-21T19:32:46.072Z,100675.52
2023-03-21T19:36:26.412Z,100682.88
2023-03-21T19:40:07.448Z,100682.55
2023-03-21T19:43:56.677Z,100679.59
2023-03-21T19:47:46.187Z,100681.34
2023-03-21T19:51:38.094Z,100682.20
2023-03-21T19:55:30.486Z,100686.58
2023-03-21T19:59:19.035Z,100687.27
2023-03-21T20:02:38.085Z,100691.45
2023-03-21T20:06:06.899Z,100694.59
2023-03-21T20:09:51.270Z,100692.16
2023-03-21T20:13:33.937Z,100689.73
2023-03-21T20:17:22.780Z,100685.71
2023-03-21T20:21:17.575Z,100685.37
2023-03-21T20:25:07.152Z,100690.40
2023-03-21T20:29:00.286Z,100695.63
2023-03-21T20:36:40.822Z,100696.84
2023-03-21T20:39:17.222Z,100698.41
2023-03-21T20:40:31.392Z,100700.32
2023-03-21T20:44:44.754Z,100697.72
2023-03-21T20:48:05.934Z,100692.14
2023-03-21T20:55:53.375Z,100685.70
2023-03-21T20:59:44.865Z,100690.93
2023-03-21T21:03:17.519Z,100689.54
2023-03-21T21:07:14.048Z,100683.09
2023-03-21T21:11:56.648Z,100679.80
2023-03-21T21:15:59.251Z,100676.34
2023-03-21T21:19:24.727Z,100680.02
2023-03-21T21:23:14.258Z,100680.92
2023-03-21T21:26:51.972Z,100682.16
2023-03-21T21:30:29.650Z,100680.94
2023-03-21T21:34:18.452Z,100680.44
2023-03-21T21:38:07.280Z,100674.52
2023-03-21T21:41:56.083Z,100672.10
2023-03-21T21:45:44.924Z,100671.77
2023-03-21T21:49:37.069Z,100675.61
2023-03-21T21:53:15.844Z,100677.88
2023-03-21T21:56:55.678Z,100678.23
2023-03-21T22:00:43.241Z,100676.16
2023-03-21T22:04:31.995Z,100678.61
2023-03-21T22:08:20.846Z,100687.51
2023-03-21T22:11:52.480Z,100692.73
2023-03-21T22:15:06.256Z,100692.73
2023-03-21T22:18:49.001Z,100690.13
2023-03-21T22:22:27.770Z,100691.87
2023-03-21T22:25:47.691Z,100692.20
2023-03-21T22:29:26.591Z,100694.81
2023-03-21T22:32:25.504Z,100689.09
2023-03-21T22:35:57.327Z,100686.81
2023-03-21T22:39:28.496Z,100682.30
2023-03-21T22:42:13.463Z,100680.90
2023-03-21T22:45:23.185Z,100680.21
2023-03-21T22:48:23.419Z,100679.34
2023-03-21T22:52:03.095Z,100678.29
2023-03-21T22:54:47.543Z,100682.80
2023-03-21T22:58:06.339Z,100683.67
2023-03-21T23:01:31.458Z,100684.70
2023-03-21T23:05:11.284Z,100682.80
2023-03-21T23:09:00.034Z,100680.69
2023-03-21T23:12:30.815Z,100678.77
2023-03-21T23:16:09.706Z,100678.94
2023-03-21T23:19:48.381Z,100679.79
2023-03-21T23:23:17.106Z,100683.97
2023-03-21T23:27:05.978Z,100684.11
2023-03-21T23:30:37.819Z,100682.02
2023-03-21T23:34:26.766Z,100683.75
2023-03-21T23:37:59.993Z,100680.27
2023-03-21T23:41:47.403Z,100681.64
2023-03-21T23:45:06.090Z,100675.55
2023-03-21T23:48:24.872Z,100672.41
2023-03-21T23:51:53.675Z,100671.04
2023-03-21T23:55:26.849Z,100663.20
2023-03-21T23:59:15.647Z,100662.66
